This is the latest recevied weather packets stored in our database for station/object TG8AKV-17. If no packets are shown the sender has not sent any weather packets the latest 10 day(s).
| Time | Temp. | Humidity | Pressure | Rain* | Wind** | Luminosity | Snow |
|---|---|---|---|---|---|---|---|
| 1778210724 | 14.44° C | 95% | 1017 hPa | 0 mm | - | - | - |
| 1778210124 | 14.44° C | 95% | 1017 hPa | 0 mm | - | - | - |
| 1778209523 | 14.44° C | 95% | 1017 hPa | 0 mm | - | - | - |
| 1778208922 | 14.44° C | 95% | 1017 hPa | 0 mm | - | - | - |
| 1778208322 | 14.44° C | 95% | 1017 hPa | 0 mm | - | - | - |
| 1778207721 | 14.44° C | 95% | 1017 hPa | 0 mm | - | - | - |
| 1778207120 | 14.44° C | 95% | 1017 hPa | 0 mm | - | - | - |
| 1778206519 | 14.44° C | 95% | 1017 hPa | 0 mm | - | - | - |
| 1778205919 | 14.44° C | 95% | 1017 hPa | 0 mm | - | - | - |
| 1778205318 | 14.44° C | 95% | 1017 hPa | 0 mm | - | - | - |
| 1778204718 | 14.44° C | 96% | 1017 hPa | 0 mm | - | - | - |
| 1778204117 | 14.44° C | 96% | 1017 hPa | 0 mm | - | - | - |
| 1778203516 | 14.44° C | 96% | 1016 hPa | 0 mm | - | - | - |
| 1778202916 | 14.44° C | 96% | 1016 hPa | 0 mm | - | - | - |
| 1778202315 | 14.44° C | 96% | 1016 hPa | 0 mm | - | - | - |
| 1778201715 | 14.44° C | 96% | 1016 hPa | 0 mm | - | - | - |
| 1778201114 | 14.44° C | 96% | 1015 hPa | 0 mm | - | - | - |
| 1778200513 | 18.33° C | 85% | 1015 hPa | 0 mm | - | - | - |
| 1778199913 | 17.78° C | 86% | 1015 hPa | 0.25 mm | - | - | - |
| 1778199312 | 16.67° C | 89% | 1015 hPa | 0 mm | - | - | - |
| 1778198712 | 15° C | 96% | 1015 hPa | 0 mm | - | - | - |
| 1778198111 | 15° C | 96% | 1015 hPa | 0 mm | - | - | - |
| 1778197511 | 15° C | 96% | 1014 hPa | 0 mm | - | - | - |
| 1778196910 | 19.44° C | 82% | 1014 hPa | 0 mm | - | - | - |
| 1778196310 | 18.89° C | 83% | 1013 hPa | 0 mm | - | - | - |
* Rain latest hour (hover to see other rain measurements)
** Current wind speed in m/s (hover to see current wind gust speed)